createdAt,value
2019-05-07T00:01:45.411Z,95708.30
2019-05-07T00:04:12.992Z,95710.98
2019-05-07T00:06:40.493Z,95707.30
2019-05-07T00:09:08.990Z,95703.81
2019-05-07T00:11:36.389Z,95706.41
2019-05-07T00:14:04.142Z,95701.64
2019-05-07T00:16:32.556Z,95705.30
2019-05-07T00:19:02.038Z,95716.50
2019-05-07T00:21:29.435Z,95710.01
2019-05-07T00:23:56.854Z,95705.17
2019-05-07T00:26:24.254Z,95705.00
2019-05-07T00:28:52.644Z,95709.92
2019-05-07T00:31:20.392Z,95704.16
2019-05-07T00:33:47.784Z,95699.45
2019-05-07T00:36:25.152Z,95701.11
2019-05-07T00:38:58.599Z,95700.97
2019-05-07T00:41:33.454Z,95702.89
2019-05-07T00:44:03.240Z,95708.83
2019-05-07T00:46:32.241Z,95705.77
2019-05-07T00:49:02.265Z,95702.32
2019-05-07T00:51:33.589Z,95702.27
2019-05-07T00:54:03.641Z,95699.83
2019-05-07T00:56:33.047Z,95699.98
2019-05-07T00:59:02.191Z,95700.91
2019-05-07T01:01:29.713Z,95700.75
2019-05-07T01:03:57.122Z,95701.66
2019-05-07T01:06:26.598Z,95709.53
2019-05-07T01:08:53.833Z,95700.19
2019-05-07T01:11:22.687Z,95701.33
2019-05-07T01:13:52.045Z,95704.64
2019-05-07T01:16:22.022Z,95710.69
2019-05-07T01:18:49.033Z,95707.27
2019-05-07T01:21:16.451Z,95706.69
2019-05-07T01:23:43.872Z,95713.02
2019-05-07T01:26:12.429Z,95711.52
2019-05-07T01:28:58.239Z,95704.27
2019-05-07T01:31:28.630Z,95703.64
2019-05-07T01:34:09.287Z,95702.26
2019-05-07T01:36:36.707Z,95697.14
2019-05-07T01:39:05.185Z,95693.63
2019-05-07T01:41:32.738Z,95694.93
2019-05-07T01:44:02.034Z,95699.91
2019-05-07T01:46:29.439Z,95691.30
2019-05-07T01:48:57.526Z,95701.88
2019-05-07T01:51:25.133Z,95693.58
2019-05-07T01:53:52.547Z,95696.20
2019-05-07T01:56:19.954Z,95698.07
2019-05-07T01:58:47.314Z,95695.29
2019-05-07T02:01:14.673Z,95692.09
2019-05-07T02:03:57.958Z,95690.77
2019-05-07T02:06:44.878Z,95690.09
2019-05-07T02:09:42.477Z,95694.42
2019-05-07T02:12:35.128Z,95695.47
2019-05-07T02:15:03.025Z,95687.37
2019-05-07T02:17:32.177Z,95688.13
2019-05-07T02:19:59.757Z,95692.39
2019-05-07T02:22:27.182Z,95690.77
2019-05-07T02:24:54.640Z,95686.65
2019-05-07T02:27:22.257Z,95683.41
2019-05-07T02:29:49.779Z,95680.27
2019-05-07T02:32:17.138Z,95684.11
2019-05-07T02:34:44.573Z,95677.52
2019-05-07T02:37:15.309Z,95676.88
2019-05-07T02:40:04.884Z,95681.70
2019-05-07T02:42:33.610Z,95680.73
2019-05-07T02:45:23.811Z,95681.17
2019-05-07T02:47:52.308Z,95686.92
2019-05-07T02:50:27.522Z,95694.73
2019-05-07T02:53:17.676Z,95689.42
2019-05-07T02:55:45.027Z,95684.18
2019-05-07T02:58:13.713Z,95673.45
2019-05-07T03:00:43.434Z,95671.77
2019-05-07T03:03:13.652Z,95670.04
2019-05-07T03:05:42.851Z,95669.34
2019-05-07T03:08:09.415Z,95674.90
2019-05-07T03:10:36.778Z,95670.37
2019-05-07T03:13:04.275Z,95676.39
2019-05-07T03:15:33.179Z,95671.32
2019-05-07T03:18:03.378Z,95672.72
2019-05-07T03:20:37.195Z,95674.33
2019-05-07T03:23:05.344Z,95670.75
2019-05-07T03:25:53.854Z,95678.80
2019-05-07T03:28:23.089Z,95676.28
2019-05-07T03:30:57.428Z,95678.36
2019-05-07T03:33:46.434Z,95679.70
2019-05-07T03:36:15.954Z,95674.41
2019-05-07T03:38:39.160Z,95664.06
2019-05-07T03:41:06.536Z,95668.27
2019-05-07T03:43:33.978Z,95670.97
2019-05-07T03:46:19.514Z,95668.15
2019-05-07T03:48:47.340Z,95669.18
2019-05-07T03:51:14.813Z,95674.20
2019-05-07T03:53:43.632Z,95673.37
2019-05-07T03:56:13.042Z,95674.09
2019-05-07T03:58:43.380Z,95681.39
2019-05-07T04:01:13.156Z,95690.03
2019-05-07T04:03:39.373Z,95682.98
2019-05-07T04:06:06.744Z,95686.69
2019-05-07T04:08:34.144Z,95687.20
2019-05-07T04:11:03.677Z,95671.73
2019-05-07T04:13:33.404Z,95678.95
2019-05-07T04:16:03.640Z,95669.86
2019-05-07T04:18:32.654Z,95673.34
2019-05-07T04:20:58.864Z,95680.11
2019-05-07T04:23:26.239Z,95679.77
2019-05-07T04:26:03.457Z,95683.28
2019-05-07T04:28:33.835Z,95690.00
2019-05-07T04:31:03.020Z,95682.14
2019-05-07T04:33:35.805Z,95690.58
2019-05-07T04:36:09.948Z,95688.19
2019-05-07T04:38:37.288Z,95688.09
2019-05-07T04:41:04.656Z,95684.00
2019-05-07T04:43:33.614Z,95686.14
2019-05-07T04:46:03.114Z,95690.53
2019-05-07T04:48:33.735Z,95702.88
2019-05-07T04:51:03.605Z,95702.08
2019-05-07T04:53:32.843Z,95697.58
2019-05-07T04:56:03.062Z,95691.69
2019-05-07T04:58:29.662Z,95687.48
2019-05-07T05:00:57.166Z,95690.51
2019-05-07T05:03:26.379Z,95696.42
2019-05-07T05:05:53.765Z,95693.23
2019-05-07T05:08:23.358Z,95690.98
2019-05-07T05:10:50.374Z,95696.41
2019-05-07T05:13:17.792Z,95695.98
2019-05-07T05:15:46.436Z,95685.00
2019-05-07T05:18:13.837Z,95691.12
2019-05-07T05:20:59.735Z,95686.97
2019-05-07T05:23:44.543Z,95682.75
2019-05-07T05:26:12.553Z,95675.16
2019-05-07T05:28:41.904Z,95681.77
2019-05-07T05:31:09.292Z,95686.93
2019-05-07T05:33:36.655Z,95678.58
2019-05-07T05:36:04.131Z,95679.89
2019-05-07T05:38:32.862Z,95675.12
2019-05-07T05:41:02.724Z,95678.18
2019-05-07T05:43:44.615Z,95677.65
2019-05-07T05:46:12.595Z,95673.38
2019-05-07T05:48:42.333Z,95665.96
2019-05-07T05:51:34.664Z,95673.93
2019-05-07T05:54:09.860Z,95673.09
2019-05-07T05:56:53.761Z,95679.78
2019-05-07T05:59:49.098Z,95674.92
2019-05-07T06:02:35.488Z,95674.11
2019-05-07T06:05:28.705Z,95674.56
2019-05-07T06:08:03.744Z,95668.41
2019-05-07T06:10:37.632Z,95673.92
2019-05-07T06:13:16.500Z,95670.41
2019-05-07T06:16:12.643Z,95672.26
2019-05-07T06:18:47.959Z,95671.94
2019-05-07T06:21:25.622Z,95667.66
2019-05-07T06:23:56.147Z,95664.44
2019-05-07T06:26:23.510Z,95666.67
2019-05-07T06:28:51.907Z,95668.20
2019-05-07T06:31:22.141Z,95664.60
2019-05-07T06:33:49.552Z,95666.14
2019-05-07T06:36:16.889Z,95658.72
2019-05-07T06:39:09.675Z,95660.83
2019-05-07T06:41:55.028Z,95657.34
2019-05-07T06:44:23.408Z,95656.78
2019-05-07T06:46:52.621Z,95653.38
2019-05-07T06:49:22.122Z,95655.83
2019-05-07T06:51:49.491Z,95648.87
2019-05-07T06:54:16.850Z,95651.94
2019-05-07T06:56:44.218Z,95658.78
2019-05-07T06:59:22.684Z,95651.49
2019-05-07T07:02:15.649Z,95653.31
2019-05-07T07:04:51.884Z,95649.41
2019-05-07T07:07:33.845Z,95645.83
2019-05-07T07:10:22.686Z,95654.44
2019-05-07T07:12:50.112Z,95650.20
2019-05-07T07:15:17.461Z,95646.73
2019-05-07T07:17:44.884Z,95646.82
2019-05-07T07:20:12.810Z,95640.64
2019-05-07T07:22:42.453Z,95637.70
2019-05-07T07:25:11.752Z,95634.98
2019-05-07T07:27:39.011Z,95629.86
2019-05-07T07:30:28.955Z,95629.33
2019-05-07T07:32:58.014Z,95627.98
2019-05-07T07:35:25.371Z,95626.02
2019-05-07T07:37:53.127Z,95618.63
2019-05-07T07:40:44.471Z,95621.05
2019-05-07T07:43:12.859Z,95609.31
2019-05-07T07:45:42.081Z,95605.48
2019-05-07T07:48:09.973Z,95603.46
2019-05-07T07:50:37.337Z,95599.91
2019-05-07T07:53:04.677Z,95602.61
2019-05-07T07:55:37.965Z,95590.02
2019-05-07T07:58:15.176Z,95596.86
2019-05-07T08:00:56.003Z,95586.22
2019-05-07T08:03:23.412Z,95586.94
2019-05-07T08:05:51.852Z,95586.40
2019-05-07T08:08:19.411Z,95580.05
2019-05-07T08:10:46.846Z,95583.92
2019-05-07T08:13:14.211Z,95576.43
2019-05-07T08:15:43.010Z,95568.80
2019-05-07T08:18:11.971Z,95564.11
2019-05-07T08:20:39.612Z,95560.17
2019-05-07T08:23:06.948Z,95556.94
2019-05-07T08:25:52.195Z,95557.00
2019-05-07T08:28:19.581Z,95552.97
2019-05-07T08:31:12.631Z,95546.86
2019-05-07T08:33:48.611Z,95541.44
2019-05-07T08:36:17.209Z,95539.47
2019-05-07T08:38:53.354Z,95538.54
2019-05-07T08:41:22.522Z,95535.88
2019-05-07T08:43:51.967Z,95538.41
2019-05-07T08:46:44.701Z,95537.19
2019-05-07T08:49:12.533Z,95532.17
2019-05-07T08:51:39.923Z,95526.67
2019-05-07T08:54:07.419Z,95525.64
2019-05-07T08:56:35.032Z,95514.02
2019-05-07T08:59:02.749Z,95518.61
2019-05-07T09:01:32.414Z,95514.08
2019-05-07T09:03:59.595Z,95512.64
2019-05-07T09:06:35.759Z,95514.11
2019-05-07T09:09:09.531Z,95512.05
2019-05-07T09:11:36.878Z,95506.28
2019-05-07T09:14:04.356Z,95510.09
2019-05-07T09:16:31.978Z,95499.42
2019-05-07T09:18:59.453Z,95495.08
2019-05-07T09:21:26.814Z,95498.47
2019-05-07T09:23:54.152Z,95499.62
2019-05-07T09:26:26.756Z,95495.68
2019-05-07T09:29:02.646Z,95496.81
2019-05-07T09:31:38.746Z,95485.50
2019-05-07T09:34:06.136Z,95482.95
2019-05-07T09:36:42.359Z,95475.84
2019-05-07T09:39:11.931Z,95473.62
2019-05-07T09:41:38.873Z,95473.50
2019-05-07T09:44:06.246Z,95462.73
2019-05-07T09:46:33.648Z,95464.91
2019-05-07T09:49:02.945Z,95463.53
2019-05-07T09:51:32.237Z,95459.00
2019-05-07T09:53:59.676Z,95451.46
2019-05-07T09:56:27.021Z,95454.25
2019-05-07T09:58:54.373Z,95454.94
2019-05-07T10:01:24.045Z,95443.76
2019-05-07T10:03:51.836Z,95440.20
2019-05-07T10:06:19.393Z,95436.73
2019-05-07T10:08:46.876Z,95441.66
2019-05-07T10:11:22.539Z,95431.59
2019-05-07T10:13:55.792Z,95429.95
2019-05-07T10:16:31.102Z,95425.40
2019-05-07T10:18:58.500Z,95418.70
2019-05-07T10:21:25.996Z,95412.27
2019-05-07T10:23:53.340Z,95413.81
2019-05-07T10:26:22.557Z,95413.55
2019-05-07T10:28:50.095Z,95405.19
2019-05-07T10:31:17.426Z,95399.49
2019-05-07T10:33:44.925Z,95401.81
2019-05-07T10:36:12.598Z,95399.59
2019-05-07T10:38:40.057Z,95399.69
2019-05-07T10:41:07.477Z,95389.08
2019-05-07T10:43:34.937Z,95388.34
2019-05-07T10:46:20.901Z,95394.06
2019-05-07T10:49:03.033Z,95392.08
2019-05-07T10:51:32.225Z,95393.55
2019-05-07T10:54:02.363Z,95387.08
2019-05-07T10:56:29.837Z,95384.16
2019-05-07T10:58:57.237Z,95386.98
2019-05-07T11:01:48.263Z,95375.16
2019-05-07T11:04:15.672Z,95370.66
2019-05-07T11:06:43.040Z,95372.25
2019-05-07T11:09:10.372Z,95368.45
2019-05-07T11:11:37.727Z,95367.64
2019-05-07T11:14:05.081Z,95359.64
2019-05-07T11:16:37.279Z,95357.05
2019-05-07T11:19:04.758Z,95356.44
2019-05-07T11:21:33.418Z,95356.76
2019-05-07T11:24:03.227Z,95342.16
2019-05-07T11:26:32.701Z,95342.64
2019-05-07T11:29:02.231Z,95337.75
2019-05-07T11:31:29.312Z,95339.74
2019-05-07T11:33:56.693Z,95338.22
2019-05-07T11:36:24.054Z,95329.59
2019-05-07T11:38:52.670Z,95321.41
2019-05-07T11:41:28.258Z,95310.92
2019-05-07T11:44:01.784Z,95315.75
2019-05-07T11:46:36.077Z,95308.56
2019-05-07T11:49:11.591Z,95307.88
2019-05-07T11:51:52.694Z,95305.52
2019-05-07T11:54:20.079Z,95302.59
2019-05-07T11:56:47.452Z,95294.31
2019-05-07T11:59:14.875Z,95285.25
2019-05-07T12:01:47.667Z,95274.13
2019-05-07T12:04:15.155Z,95274.86
2019-05-07T12:06:42.550Z,95266.08
2019-05-07T12:09:11.971Z,95267.17
2019-05-07T12:11:39.219Z,95267.89
2019-05-07T12:14:06.764Z,95258.78
2019-05-07T12:16:34.177Z,95268.39
2019-05-07T12:19:02.279Z,95261.73
2019-05-07T12:21:29.937Z,95263.55
2019-05-07T12:23:57.292Z,95253.97
2019-05-07T12:26:24.632Z,95253.75
2019-05-07T12:28:52.260Z,95245.48
2019-05-07T12:31:37.619Z,95239.11
2019-05-07T12:34:15.295Z,95233.94
2019-05-07T12:36:42.679Z,95228.14
2019-05-07T12:39:12.571Z,95226.11
2019-05-07T12:41:41.515Z,95225.34
2019-05-07T12:44:08.870Z,95218.84
2019-05-07T12:46:36.606Z,95219.53
2019-05-07T12:49:04.157Z,95219.88
2019-05-07T12:51:37.804Z,95216.84
2019-05-07T12:54:19.342Z,95218.25
2019-05-07T12:56:46.770Z,95208.63
2019-05-07T12:59:14.154Z,95207.17
2019-05-07T13:02:21.526Z,95201.78
2019-05-07T13:04:36.376Z,95197.98
2019-05-07T13:07:11.697Z,95188.77
2019-05-07T13:09:39.156Z,95181.93
2019-05-07T13:12:06.534Z,95180.30
2019-05-07T13:14:33.954Z,95183.31
2019-05-07T13:17:02.794Z,95182.05
2019-05-07T13:19:30.435Z,95184.12
2019-05-07T13:21:57.862Z,95177.02
2019-05-07T13:24:25.418Z,95165.66
2019-05-07T13:26:52.734Z,95164.25
2019-05-07T13:29:22.005Z,95159.00
2019-05-07T13:31:53.908Z,95152.28
2019-05-07T13:34:19.244Z,95156.31
2019-05-07T13:36:51.634Z,95146.70
2019-05-07T13:39:24.204Z,95154.31
2019-05-07T13:42:03.350Z,95150.98
2019-05-07T13:44:52.061Z,95157.12
2019-05-07T13:47:24.953Z,95158.30
2019-05-07T13:49:53.872Z,95151.13
2019-05-07T13:52:23.020Z,95143.78
2019-05-07T13:54:52.589Z,95145.64
2019-05-07T13:57:20.116Z,95148.45
2019-05-07T13:59:47.569Z,95138.60
2019-05-07T14:02:16.118Z,95133.32
2019-05-07T14:04:43.578Z,95124.90
2019-05-07T14:07:12.636Z,95122.02
2019-05-07T14:09:42.022Z,95127.16
2019-05-07T14:12:09.452Z,95127.38
2019-05-07T14:14:36.835Z,95129.63
2019-05-07T14:17:04.303Z,95122.39
2019-05-07T14:19:32.743Z,95110.27
2019-05-07T14:22:00.294Z,95120.77
2019-05-07T14:24:27.678Z,95105.86
2019-05-07T14:26:55.043Z,95108.34
2019-05-07T14:29:24.706Z,95103.55
2019-05-07T14:32:04.981Z,95100.16
2019-05-07T14:34:35.142Z,95093.77
2019-05-07T14:37:15.181Z,95080.70
2019-05-07T14:39:42.636Z,95087.61
2019-05-07T14:42:13.145Z,95082.52
2019-05-07T14:44:50.160Z,95079.20
2019-05-07T14:47:19.130Z,95073.71
2019-05-07T14:49:47.230Z,95076.20
2019-05-07T14:52:28.121Z,95074.56
2019-05-07T14:54:43.976Z,95073.92
2019-05-07T14:57:11.558Z,95067.45
2019-05-07T14:59:38.992Z,95064.14
2019-05-07T15:02:06.528Z,95071.22
2019-05-07T15:04:34.192Z,95064.30
2019-05-07T15:07:02.533Z,95062.81
2019-05-07T15:09:31.800Z,95063.97
2019-05-07T15:11:59.361Z,95051.41
2019-05-07T15:14:26.920Z,95061.16
2019-05-07T15:16:57.674Z,95047.73
2019-05-07T15:19:25.038Z,95050.44
2019-05-07T15:21:55.647Z,95052.38
2019-05-07T15:24:23.162Z,95059.64
2019-05-07T15:26:52.590Z,95060.13
2019-05-07T15:29:19.975Z,95051.23
2019-05-07T15:32:12.713Z,95054.36
2019-05-07T15:34:42.118Z,95060.65
2019-05-07T15:37:12.147Z,95051.55
2019-05-07T15:39:39.323Z,95050.23
2019-05-07T15:42:07.112Z,95050.88
2019-05-07T15:44:34.807Z,95052.58
2019-05-07T15:47:06.752Z,95052.86
2019-05-07T15:49:34.445Z,95057.02
2019-05-07T15:52:04.775Z,95055.14
2019-05-07T15:54:32.641Z,95060.14
2019-05-07T15:57:03.376Z,95053.70
2019-05-07T15:59:30.828Z,95053.34
2019-05-07T16:02:07.177Z,95058.89
2019-05-07T16:04:34.605Z,95056.75
2019-05-07T16:07:05.125Z,95055.52
2019-05-07T16:09:42.743Z,95063.30
2019-05-07T16:12:11.875Z,95055.84
2019-05-07T16:14:39.427Z,95062.64
2019-05-07T16:17:29.141Z,95062.64
2019-05-07T16:19:56.472Z,95053.20
2019-05-07T16:22:29.251Z,95048.75
2019-05-07T16:24:56.677Z,95046.57
2019-05-07T16:27:24.075Z,95048.19
2019-05-07T16:29:52.681Z,95049.25
2019-05-07T16:32:23.907Z,95051.72
2019-05-07T16:34:49.628Z,95055.17
2019-05-07T16:37:16.996Z,95047.63
2019-05-07T16:39:44.371Z,95059.31
2019-05-07T16:42:11.735Z,95047.48
2019-05-07T16:44:39.032Z,95054.70
2019-05-07T16:47:06.416Z,95060.25
2019-05-07T16:49:33.772Z,95056.49
2019-05-07T16:52:01.873Z,95054.37
2019-05-07T16:54:29.365Z,95053.02
2019-05-07T16:57:28.270Z,95057.84
2019-05-07T16:59:56.134Z,95058.33
2019-05-07T17:02:27.291Z,95059.68
2019-05-07T17:05:05.009Z,95057.86
2019-05-07T17:07:33.864Z,95059.51
2019-05-07T17:10:02.630Z,95056.11
2019-05-07T17:12:32.258Z,95058.95
2019-05-07T17:14:59.555Z,95067.27
2019-05-07T17:17:27.995Z,95059.63
2019-05-07T17:19:55.440Z,95062.31
2019-05-07T17:22:22.882Z,95057.78
2019-05-07T17:24:52.015Z,95066.25
2019-05-07T17:27:22.725Z,95071.45
2019-05-07T17:29:51.935Z,95075.52
2019-05-07T17:32:19.420Z,95076.86
2019-05-07T17:34:46.804Z,95074.56
2019-05-07T17:37:14.202Z,95074.83
2019-05-07T17:39:42.602Z,95073.12
2019-05-07T17:42:11.846Z,95079.91
2019-05-07T17:44:39.518Z,95078.56
2019-05-07T17:47:06.894Z,95083.03
2019-05-07T17:49:36.509Z,95073.45
2019-05-07T17:52:03.664Z,95076.61
2019-05-07T17:54:31.887Z,95075.73
2019-05-07T17:57:01.828Z,95069.13
2019-05-07T17:59:28.919Z,95073.81
2019-05-07T18:02:09.305Z,95078.72
2019-05-07T18:04:48.482Z,95072.31
2019-05-07T18:07:12.002Z,95078.84
2019-05-07T18:09:39.760Z,95080.08
2019-05-07T18:12:12.102Z,95082.20
2019-05-07T18:14:42.307Z,95080.65
2019-05-07T18:17:30.761Z,95082.08
2019-05-07T18:19:59.301Z,95081.27
2019-05-07T18:22:26.717Z,95087.00
2019-05-07T18:24:54.546Z,95081.65
2019-05-07T18:27:24.899Z,95084.27
2019-05-07T18:29:53.523Z,95086.03
2019-05-07T18:32:21.925Z,95082.55
2019-05-07T18:34:51.787Z,95084.75
2019-05-07T18:37:23.003Z,95079.72
2019-05-07T18:39:52.107Z,95078.78
2019-05-07T18:45:12.442Z,95081.64
2019-05-07T18:50:28.182Z,95096.64
2019-05-07T18:52:57.379Z,95098.08
2019-05-07T18:55:26.315Z,95095.81
2019-05-07T18:57:59.661Z,95097.95
2019-05-07T19:00:31.777Z,95106.21
2019-05-07T19:03:00.497Z,95099.87
2019-05-07T19:05:31.613Z,95107.33
2019-05-07T19:08:07.806Z,95101.37
2019-05-07T19:10:38.938Z,95105.17
2019-05-07T19:13:07.426Z,95110.16
2019-05-07T19:15:35.952Z,95109.34
2019-05-07T19:18:06.399Z,95108.49
2019-05-07T19:20:36.190Z,95111.75
2019-05-07T19:23:04.901Z,95117.86
2019-05-07T19:25:35.915Z,95118.22
2019-05-07T19:28:06.403Z,95117.39
2019-05-07T19:30:36.502Z,95113.20
2019-05-07T19:33:12.284Z,95110.31
2019-05-07T19:35:45.895Z,95111.80
2019-05-07T19:38:17.994Z,95107.37
2019-05-07T19:40:48.709Z,95108.24
2019-05-07T19:43:22.920Z,95113.95
2019-05-07T19:45:54.243Z,95117.25
2019-05-07T19:48:26.874Z,95112.63
2019-05-07T19:50:57.490Z,95115.61
2019-05-07T19:53:33.317Z,95115.19
2019-05-07T19:56:14.778Z,95112.53
2019-05-07T19:58:58.836Z,95108.34
2019-05-07T20:01:34.687Z,95111.70
2019-05-07T20:06:54.554Z,95117.17
2019-05-07T20:09:28.022Z,95123.95
2019-05-07T20:12:02.701Z,95132.56
2019-05-07T20:14:36.398Z,95138.08
2019-05-07T20:17:05.494Z,95133.42
2019-05-07T20:19:34.278Z,95136.66
2019-05-07T20:22:02.383Z,95137.41
2019-05-07T20:24:33.191Z,95134.97
2019-05-07T20:27:06.685Z,95145.48
2019-05-07T20:29:34.860Z,95144.16
2019-05-07T20:32:03.248Z,95152.50
2019-05-07T20:34:36.747Z,95149.03
2019-05-07T20:37:07.180Z,95147.73
2019-05-07T20:39:37.007Z,95143.30
2019-05-07T20:42:06.391Z,95160.40
2019-05-07T20:44:39.343Z,95152.95
2019-05-07T20:47:08.053Z,95155.58
2019-05-07T20:49:36.745Z,95173.53
2019-05-07T20:52:04.892Z,95166.42
2019-05-07T20:54:46.331Z,95172.77
2019-05-07T20:57:22.620Z,95166.51
2019-05-07T20:59:52.874Z,95173.73
2019-05-07T21:02:22.846Z,95174.27
2019-05-07T21:04:51.889Z,95179.50
2019-05-07T21:07:22.019Z,95184.45
2019-05-07T21:09:50.243Z,95183.70
2019-05-07T21:12:18.057Z,95180.83
2019-05-07T21:14:45.566Z,95184.05
2019-05-07T21:17:13.783Z,95190.04
2019-05-07T21:19:42.823Z,95187.27
2019-05-07T21:22:12.849Z,95190.38
2019-05-07T21:24:42.097Z,95196.95
2019-05-07T21:27:09.236Z,95192.70
2019-05-07T21:29:38.447Z,95185.71
2019-05-07T21:32:05.829Z,95192.06
2019-05-07T21:34:33.259Z,95186.91
2019-05-07T21:37:03.063Z,95188.91
2019-05-07T21:39:29.896Z,95186.23
2019-05-07T21:41:57.475Z,95190.44
2019-05-07T21:44:25.311Z,95189.63
2019-05-07T21:46:55.139Z,95191.25
2019-05-07T21:49:22.987Z,95186.13
2019-05-07T21:51:52.262Z,95179.36
2019-05-07T21:54:43.638Z,95186.13
2019-05-07T21:57:29.643Z,95179.78
2019-05-07T22:00:22.435Z,95182.76
2019-05-07T22:02:52.443Z,95186.61
2019-05-07T22:05:19.469Z,95192.97
2019-05-07T22:07:46.883Z,95186.55
2019-05-07T22:10:14.643Z,95181.33
2019-05-07T22:12:42.020Z,95186.78
2019-05-07T22:15:12.860Z,95178.31
2019-05-07T22:17:44.174Z,95175.25
2019-05-07T22:20:11.887Z,95179.59
2019-05-07T22:22:39.016Z,95183.73
2019-05-07T22:25:06.484Z,95177.94
2019-05-07T22:27:33.869Z,95178.95
2019-05-07T22:30:02.279Z,95182.72
2019-05-07T22:32:49.352Z,95179.38
2019-05-07T22:35:23.092Z,95172.31
2019-05-07T22:37:51.965Z,95182.53
2019-05-07T22:40:19.704Z,95184.09
2019-05-07T22:42:47.153Z,95180.36
2019-05-07T22:45:14.583Z,95173.80
2019-05-07T22:47:42.107Z,95167.73
2019-05-07T22:50:11.870Z,95170.36
2019-05-07T22:52:38.804Z,95175.52
2019-05-07T22:55:06.184Z,95173.73
2019-05-07T22:57:49.070Z,95162.58
2019-05-07T23:00:23.599Z,95164.75
2019-05-07T23:02:51.986Z,95160.89
2019-05-07T23:05:20.303Z,95154.16
2019-05-07T23:07:47.676Z,95150.48
2019-05-07T23:10:15.104Z,95155.84
2019-05-07T23:12:42.471Z,95157.88
2019-05-07T23:15:11.827Z,95164.48
2019-05-07T23:17:39.103Z,95155.16
2019-05-07T23:20:06.655Z,95155.82
2019-05-07T23:22:33.969Z,95156.00
2019-05-07T23:25:01.364Z,95155.20
2019-05-07T23:27:28.731Z,95143.23
2019-05-07T23:29:56.093Z,95152.30
2019-05-07T23:32:23.475Z,95150.45
2019-05-07T23:34:52.768Z,95151.20
2019-05-07T23:37:22.317Z,95147.48
2019-05-07T23:39:51.965Z,95149.59
2019-05-07T23:42:23.126Z,95142.22
2019-05-07T23:44:52.368Z,95141.63
2019-05-07T23:47:19.896Z,95138.84
2019-05-07T23:49:47.301Z,95136.75
2019-05-07T23:52:14.653Z,95139.45
2019-05-07T23:54:42.595Z,95134.03
2019-05-07T23:57:14.914Z,95132.11
2019-05-07T23:59:39.492Z,95130.48
